createdAt,value
2018-08-06T00:02:00.070Z,15.00
2018-08-06T00:04:28.661Z,15.10
2018-08-06T00:06:57.435Z,15.20
2018-08-06T00:09:26.694Z,15.30
2018-08-06T00:11:55.382Z,15.30
2018-08-06T00:14:24.230Z,15.20
2018-08-06T00:16:53.506Z,15.20
2018-08-06T00:19:22.198Z,15.00
2018-08-06T00:21:50.861Z,15.00
2018-08-06T00:24:19.781Z,14.90
2018-08-06T00:26:48.509Z,15.00
2018-08-06T00:29:17.072Z,15.10
2018-08-06T00:31:45.782Z,15.20
2018-08-06T00:34:14.707Z,15.20
2018-08-06T00:36:43.270Z,15.10
2018-08-06T00:39:12.330Z,14.90
2018-08-06T00:41:41.245Z,14.60
2018-08-06T00:44:10.128Z,14.50
2018-08-06T00:46:39.240Z,14.50
2018-08-06T00:49:07.893Z,14.40
2018-08-06T00:51:36.518Z,14.40
2018-08-06T00:54:05.027Z,14.50
2018-08-06T00:56:33.804Z,14.50
2018-08-06T00:59:02.435Z,14.50
2018-08-06T01:01:30.980Z,14.60
2018-08-06T01:03:59.479Z,14.40
2018-08-06T01:06:28.068Z,14.20
2018-08-06T01:08:56.658Z,14.10
2018-08-06T01:11:25.528Z,14.10
2018-08-06T01:13:54.095Z,14.20
2018-08-06T01:16:23.016Z,14.10
2018-08-06T01:18:52.015Z,14.00
2018-08-06T01:21:20.693Z,13.80
2018-08-06T01:23:49.363Z,14.00
2018-08-06T01:26:17.984Z,14.10
2018-08-06T01:28:46.547Z,14.20
2018-08-06T01:31:15.506Z,14.30
2018-08-06T01:36:12.445Z,14.20
2018-08-06T01:38:41.297Z,14.20
2018-08-06T01:41:10.570Z,14.00
2018-08-06T01:43:39.138Z,13.90
2018-08-06T01:48:36.590Z,13.80
2018-08-06T01:51:07.970Z,13.80
2018-08-06T01:53:36.605Z,13.60
2018-08-06T01:56:05.552Z,13.60
2018-08-06T01:58:34.316Z,13.50
2018-08-06T02:01:02.929Z,13.50
2018-08-06T02:03:31.674Z,13.60
2018-08-06T02:06:00.433Z,13.60
2018-08-06T02:08:29.036Z,13.70
2018-08-06T02:10:57.622Z,13.70
2018-08-06T02:13:26.248Z,13.80
2018-08-06T02:15:54.788Z,13.80
2018-08-06T02:18:23.374Z,13.80
2018-08-06T02:20:52.021Z,13.80
2018-08-06T02:23:20.630Z,13.70
2018-08-06T02:25:49.590Z,13.70
2018-08-06T02:28:18.096Z,13.60
2018-08-06T02:30:46.645Z,13.40
2018-08-06T02:33:15.194Z,13.30
2018-08-06T02:35:43.877Z,13.10
2018-08-06T02:38:12.430Z,13.00
2018-08-06T02:40:40.957Z,13.00
2018-08-06T02:45:37.991Z,12.90
2018-08-06T02:48:06.830Z,13.10
2018-08-06T02:50:35.396Z,13.00
2018-08-06T02:53:03.983Z,12.90
2018-08-06T02:55:32.521Z,12.90
2018-08-06T02:58:01.077Z,12.90
2018-08-06T03:00:29.954Z,13.00
2018-08-06T03:02:58.489Z,12.90
2018-08-06T03:05:27.061Z,12.80
2018-08-06T03:07:55.693Z,12.60
2018-08-06T03:12:52.845Z,12.70
2018-08-06T03:15:21.600Z,12.80
2018-08-06T03:17:50.301Z,12.80
2018-08-06T03:20:19.039Z,12.80
2018-08-06T03:22:47.669Z,12.80
2018-08-06T03:25:16.950Z,12.80
2018-08-06T03:27:46.024Z,12.80
2018-08-06T03:30:16.536Z,12.80
2018-08-06T03:32:46.867Z,12.60
2018-08-06T03:35:15.579Z,12.60
2018-08-06T03:37:44.370Z,12.50
2018-08-06T03:40:13.254Z,12.50
2018-08-06T03:42:41.954Z,12.40
2018-08-06T03:45:11.749Z,12.50
2018-08-06T03:47:41.430Z,12.50
2018-08-06T03:50:11.589Z,12.50
2018-08-06T03:52:40.339Z,12.50
2018-08-06T03:55:10.161Z,12.50
2018-08-06T03:57:39.563Z,12.60
2018-08-06T04:00:10.473Z,12.50
2018-08-06T04:02:39.294Z,12.40
2018-08-06T04:05:09.962Z,12.30
2018-08-06T04:07:39.264Z,12.30
2018-08-06T04:10:09.173Z,12.30
2018-08-06T04:12:37.941Z,12.40
2018-08-06T04:15:08.013Z,12.50
2018-08-06T04:17:36.581Z,12.40
2018-08-06T04:20:06.480Z,12.40
2018-08-06T04:22:35.047Z,12.30
2018-08-06T04:25:04.646Z,12.30
2018-08-06T04:27:33.437Z,12.20
2018-08-06T04:30:01.979Z,12.30
2018-08-06T04:32:30.677Z,12.40
2018-08-06T04:34:59.193Z,12.50
2018-08-06T04:37:27.926Z,12.60
2018-08-06T04:39:56.650Z,12.70
2018-08-06T04:42:25.249Z,12.80
2018-08-06T04:44:54.117Z,13.00
2018-08-06T04:47:22.659Z,13.10
2018-08-06T04:49:51.578Z,13.30
2018-08-06T04:52:20.173Z,13.30
2018-08-06T04:54:48.665Z,13.40
2018-08-06T04:57:17.301Z,13.50
2018-08-06T04:59:46.605Z,13.70
2018-08-06T05:02:15.313Z,13.80
2018-08-06T05:04:43.955Z,14.20
2018-08-06T05:07:12.524Z,14.30
2018-08-06T05:09:41.381Z,14.10
2018-08-06T05:12:10.117Z,14.20
2018-08-06T05:14:39.930Z,15.60
2018-08-06T05:17:08.848Z,14.40
2018-08-06T05:19:38.126Z,14.50
2018-08-06T05:22:07.493Z,14.60
2018-08-06T05:24:36.340Z,14.70
2018-08-06T05:27:05.003Z,14.60
2018-08-06T05:29:33.630Z,14.70
2018-08-06T05:32:02.191Z,14.70
2018-08-06T05:34:30.744Z,14.70
2018-08-06T05:36:59.393Z,14.70
2018-08-06T05:39:27.965Z,14.90
2018-08-06T05:41:56.765Z,15.00
2018-08-06T05:44:25.361Z,15.20
2018-08-06T05:46:54.050Z,15.30
2018-08-06T05:49:22.580Z,15.60
2018-08-06T05:54:19.691Z,16.50
2018-08-06T05:56:48.230Z,16.40
2018-08-06T06:01:45.947Z,16.50
2018-08-06T06:04:14.491Z,16.50
2018-08-06T06:06:43.711Z,16.50
2018-08-06T06:09:12.230Z,16.60
2018-08-06T06:11:41.010Z,16.60
2018-08-06T06:14:10.134Z,16.70
2018-08-06T06:16:38.792Z,16.90
2018-08-06T06:19:07.987Z,17.00
2018-08-06T06:21:36.733Z,17.10
2018-08-06T06:24:05.316Z,17.20
2018-08-06T06:26:33.867Z,17.40
2018-08-06T06:29:02.392Z,17.50
2018-08-06T06:31:30.919Z,17.50
2018-08-06T06:33:59.867Z,17.70
2018-08-06T06:36:28.634Z,17.90
2018-08-06T06:38:57.191Z,18.10
2018-08-06T06:41:25.989Z,18.20
2018-08-06T06:43:54.611Z,18.40
2018-08-06T06:46:23.198Z,18.60
2018-08-06T06:48:51.932Z,18.70
2018-08-06T06:51:20.552Z,18.80
2018-08-06T06:53:49.114Z,18.90
2018-08-06T06:56:18.031Z,19.10
2018-08-06T06:58:46.612Z,19.10
2018-08-06T07:01:15.153Z,19.30
2018-08-06T07:03:44.299Z,19.50
2018-08-06T07:06:13.022Z,19.70
2018-08-06T07:08:41.879Z,19.80
2018-08-06T07:11:10.424Z,20.00
2018-08-06T07:16:07.467Z,20.20
2018-08-06T07:18:36.131Z,20.30
2018-08-06T07:21:05.389Z,20.50
2018-08-06T07:23:34.070Z,20.60
2018-08-06T07:26:02.663Z,20.70
2018-08-06T07:28:31.568Z,20.80
2018-08-06T07:31:00.145Z,20.90
2018-08-06T07:33:28.867Z,21.10
2018-08-06T07:35:57.442Z,21.20
2018-08-06T07:38:26.467Z,21.30
2018-08-06T07:40:55.404Z,21.50
2018-08-06T07:43:24.156Z,21.70
2018-08-06T07:45:52.766Z,21.90
2018-08-06T07:48:21.460Z,22.30
2018-08-06T07:50:50.029Z,22.60
2018-08-06T07:53:18.886Z,22.80
2018-08-06T07:55:47.593Z,22.90
2018-08-06T07:58:16.351Z,22.90
2018-08-06T08:00:45.056Z,23.00
2018-08-06T08:03:13.651Z,23.00
2018-08-06T08:05:42.282Z,23.10
2018-08-06T08:08:11.086Z,23.20
2018-08-06T08:10:39.689Z,23.30
2018-08-06T08:13:08.539Z,23.40
2018-08-06T08:15:37.371Z,23.50
2018-08-06T08:18:06.060Z,23.60
2018-08-06T08:20:34.827Z,23.80
2018-08-06T08:23:03.482Z,23.90
2018-08-06T08:25:32.209Z,24.00
2018-08-06T08:28:01.086Z,24.10
2018-08-06T08:30:29.768Z,24.10
2018-08-06T08:32:58.384Z,24.30
2018-08-06T08:35:30.162Z,24.30
2018-08-06T08:37:58.978Z,24.40
2018-08-06T08:40:27.834Z,24.40
2018-08-06T08:42:56.592Z,24.60
2018-08-06T08:45:25.285Z,24.90
2018-08-06T08:47:54.118Z,25.00
2018-08-06T08:50:22.713Z,25.10
2018-08-06T08:52:51.311Z,25.10
2018-08-06T08:55:20.770Z,25.20
2018-08-06T08:57:49.438Z,25.40
2018-08-06T09:00:19.845Z,25.50
2018-08-06T09:02:49.389Z,25.80
2018-08-06T09:05:18.951Z,25.80
2018-08-06T09:07:48.208Z,26.10
2018-08-06T09:10:17.824Z,26.40
2018-08-06T09:12:47.218Z,26.50
2018-08-06T09:15:18.264Z,26.40
2018-08-06T09:17:47.142Z,26.20
2018-08-06T09:20:15.926Z,26.40
2018-08-06T09:22:45.109Z,26.70
2018-08-06T09:25:14.452Z,26.70
2018-08-06T09:27:44.521Z,27.00
2018-08-06T09:32:44.965Z,27.00
2018-08-06T09:35:14.271Z,27.20
2018-08-06T09:37:43.362Z,27.60
2018-08-06T09:42:43.813Z,28.00
2018-08-06T09:45:13.965Z,28.00
2018-08-06T09:47:44.248Z,28.20
2018-08-06T09:50:13.785Z,28.50
2018-08-06T09:52:43.491Z,28.60
2018-08-06T09:55:15.579Z,28.70
2018-08-06T09:57:44.557Z,29.20
2018-08-06T10:00:21.027Z,29.60
2018-08-06T10:02:50.736Z,29.90
2018-08-06T10:05:20.627Z,30.40
2018-08-06T10:07:49.391Z,30.80
2018-08-06T10:10:18.075Z,31.00
2018-08-06T10:12:47.018Z,31.40
2018-08-06T10:15:16.186Z,31.50
2018-08-06T10:17:45.985Z,31.80
2018-08-06T10:20:17.860Z,32.20
2018-08-06T10:22:46.541Z,32.50
2018-08-06T10:25:15.815Z,33.30
2018-08-06T10:30:11.664Z,33.50
2018-08-06T10:32:40.721Z,33.60
2018-08-06T10:35:11.126Z,34.20
2018-08-06T10:37:39.852Z,33.50
2018-08-06T10:40:12.523Z,34.50
2018-08-06T10:42:41.612Z,35.50
2018-08-06T10:45:12.954Z,35.90
2018-08-06T10:47:42.412Z,36.80
2018-08-06T10:50:11.386Z,37.20
2018-08-06T10:52:40.411Z,37.30
2018-08-06T10:55:09.870Z,37.70
2018-08-06T10:57:39.619Z,37.50
2018-08-06T11:00:12.040Z,37.70
2018-08-06T11:02:40.672Z,37.30
2018-08-06T11:05:10.691Z,37.40
2018-08-06T11:07:39.525Z,37.50
2018-08-06T11:10:11.241Z,37.50
2018-08-06T11:12:40.473Z,37.80
2018-08-06T11:15:16.305Z,37.50
2018-08-06T11:17:45.311Z,37.90
2018-08-06T11:20:15.338Z,38.50
2018-08-06T11:22:44.084Z,38.70
2018-08-06T11:25:14.197Z,38.50
2018-08-06T11:27:42.912Z,37.50
2018-08-06T11:30:14.037Z,38.20
2018-08-06T11:32:42.931Z,38.30
2018-08-06T11:35:12.532Z,37.10
2018-08-06T11:37:41.846Z,37.30
2018-08-06T11:40:11.653Z,37.90
2018-08-06T11:42:41.071Z,38.90
2018-08-06T11:45:14.534Z,39.80
2018-08-06T11:50:11.866Z,39.90
2018-08-06T11:52:40.466Z,39.30
2018-08-06T11:55:09.732Z,39.60
2018-08-06T11:57:38.785Z,40.30
2018-08-06T12:00:24.270Z,40.70
2018-08-06T12:02:53.067Z,40.80
2018-08-06T12:05:21.964Z,40.60
2018-08-06T12:07:50.772Z,41.80
2018-08-06T12:10:19.919Z,42.00
2018-08-06T12:12:49.434Z,42.80
2018-08-06T12:15:18.084Z,42.20
2018-08-06T12:17:47.020Z,41.70
2018-08-06T12:20:17.708Z,41.80
2018-08-06T12:22:47.768Z,41.00
2018-08-06T12:25:17.311Z,41.40
2018-08-06T12:27:46.894Z,41.60
2018-08-06T12:30:17.849Z,40.90
2018-08-06T12:32:47.619Z,42.00
2018-08-06T12:35:16.916Z,42.70
2018-08-06T12:37:45.963Z,42.70
2018-08-06T12:40:16.062Z,43.30
2018-08-06T12:42:44.665Z,43.80
2018-08-06T12:45:14.455Z,43.10
2018-08-06T12:47:43.516Z,42.80
2018-08-06T12:50:13.446Z,42.50
2018-08-06T12:52:42.984Z,43.80
2018-08-06T12:55:13.024Z,44.10
2018-08-06T12:57:42.725Z,44.40
2018-08-06T13:00:14.548Z,42.90
2018-08-06T13:02:43.531Z,44.00
2018-08-06T13:05:12.700Z,42.80
2018-08-06T13:07:42.042Z,44.20
2018-08-06T13:10:10.813Z,44.40
2018-08-06T13:12:40.166Z,44.50
2018-08-06T13:15:10.792Z,44.90
2018-08-06T13:17:40.046Z,44.90
2018-08-06T13:22:37.110Z,45.10
2018-08-06T13:25:08.887Z,45.40
2018-08-06T13:27:37.705Z,45.30
2018-08-06T13:30:11.065Z,44.80
2018-08-06T13:32:39.744Z,44.60
2018-08-06T13:35:08.364Z,44.60
2018-08-06T13:37:37.622Z,44.60
2018-08-06T13:40:07.562Z,44.80
2018-08-06T13:42:36.366Z,45.50
2018-08-06T13:45:07.125Z,45.40
2018-08-06T13:47:36.007Z,45.20
2018-08-06T13:50:05.562Z,46.20
2018-08-06T13:52:34.192Z,45.70
2018-08-06T13:55:03.103Z,45.00
2018-08-06T13:57:31.758Z,46.20
2018-08-06T14:00:00.447Z,45.90
2018-08-06T14:02:29.077Z,46.90
2018-08-06T14:04:57.660Z,47.70
2018-08-06T14:07:26.497Z,47.70
2018-08-06T14:09:55.393Z,46.90
2018-08-06T14:12:24.133Z,46.70
2018-08-06T14:14:52.788Z,48.60
2018-08-06T14:17:21.728Z,48.40
2018-08-06T14:19:50.321Z,47.00
2018-08-06T14:22:18.981Z,46.60
2018-08-06T14:24:47.781Z,46.30
2018-08-06T14:27:17.540Z,46.00
2018-08-06T14:29:46.118Z,46.00
2018-08-06T14:32:14.761Z,46.70
2018-08-06T14:34:43.683Z,46.90
2018-08-06T14:37:12.351Z,46.30
2018-08-06T14:39:41.104Z,45.90
2018-08-06T14:42:09.679Z,46.10
2018-08-06T14:44:38.524Z,45.70
2018-08-06T14:47:07.433Z,44.20
2018-08-06T14:49:36.315Z,42.80
2018-08-06T14:52:05.151Z,44.60
2018-08-06T14:54:33.647Z,46.10
2018-08-06T14:57:02.498Z,47.40
2018-08-06T14:59:31.389Z,46.80
2018-08-06T15:02:00.060Z,46.70
2018-08-06T15:04:28.724Z,48.00
2018-08-06T15:06:57.356Z,47.10
2018-08-06T15:09:25.895Z,46.60
2018-08-06T15:11:54.478Z,46.50
2018-08-06T15:14:23.396Z,47.70
2018-08-06T15:16:51.985Z,45.60
2018-08-06T15:19:20.690Z,46.30
2018-08-06T15:21:49.250Z,48.40
2018-08-06T15:24:18.012Z,49.20
2018-08-06T15:26:46.746Z,49.10
2018-08-06T15:29:15.512Z,49.40
2018-08-06T15:31:44.595Z,48.30
2018-08-06T15:34:13.537Z,49.00
2018-08-06T15:36:42.098Z,49.70
2018-08-06T15:39:13.971Z,46.00
2018-08-06T15:41:43.504Z,43.80
2018-08-06T15:44:12.721Z,44.20
2018-08-06T15:46:41.540Z,45.80
2018-08-06T15:49:10.641Z,45.50
2018-08-06T15:51:39.520Z,47.00
2018-08-06T15:54:09.162Z,46.90
2018-08-06T15:56:38.131Z,46.80
2018-08-06T15:59:06.759Z,45.70
2018-08-06T16:01:35.645Z,45.20
2018-08-06T16:04:04.413Z,45.00
2018-08-06T16:06:32.967Z,44.30
2018-08-06T16:09:01.785Z,43.30
2018-08-06T16:11:30.628Z,43.10
2018-08-06T16:13:59.379Z,42.20
2018-08-06T16:16:28.216Z,41.00
2018-08-06T16:18:56.983Z,39.50
2018-08-06T16:21:25.769Z,38.50
2018-08-06T16:23:54.331Z,37.80
2018-08-06T16:26:23.234Z,37.20
2018-08-06T16:28:51.864Z,36.90
2018-08-06T16:31:20.679Z,36.80
2018-08-06T16:36:17.564Z,36.70
2018-08-06T16:38:46.166Z,36.80
2018-08-06T16:41:15.132Z,37.00
2018-08-06T16:43:43.992Z,37.10
2018-08-06T16:46:12.997Z,37.40
2018-08-06T16:48:42.233Z,36.90
2018-08-06T16:51:11.331Z,36.60
2018-08-06T16:53:40.196Z,35.90
2018-08-06T16:56:09.293Z,35.70
2018-08-06T16:58:38.109Z,35.30
2018-08-06T17:01:07.094Z,35.10
2018-08-06T17:03:35.877Z,35.10
2018-08-06T17:06:04.703Z,35.00
2018-08-06T17:08:33.594Z,34.80
2018-08-06T17:11:02.225Z,34.60
2018-08-06T17:13:30.961Z,34.30
2018-08-06T17:15:59.556Z,34.00
2018-08-06T17:18:28.365Z,33.70
2018-08-06T17:20:56.991Z,33.50
2018-08-06T17:23:25.784Z,33.30
2018-08-06T17:25:54.484Z,33.10
2018-08-06T17:28:23.384Z,32.90
2018-08-06T17:30:52.142Z,32.60
2018-08-06T17:33:21.217Z,32.50
2018-08-06T17:35:50.334Z,32.50
2018-08-06T17:38:19.118Z,32.30
2018-08-06T17:40:48.227Z,32.20
2018-08-06T17:43:16.927Z,32.20
2018-08-06T17:45:45.641Z,32.20
2018-08-06T17:48:14.754Z,32.00
2018-08-06T17:50:43.464Z,31.90
2018-08-06T17:53:12.557Z,31.80
2018-08-06T17:55:41.364Z,31.70
2018-08-06T17:58:10.142Z,31.60
2018-08-06T18:00:38.663Z,31.40
2018-08-06T18:03:07.264Z,31.20
2018-08-06T18:05:36.207Z,31.00
2018-08-06T18:08:05.091Z,30.80
2018-08-06T18:10:33.735Z,30.60
2018-08-06T18:13:02.535Z,30.50
2018-08-06T18:15:31.255Z,30.20
2018-08-06T18:17:59.995Z,30.00
2018-08-06T18:20:28.570Z,29.80
2018-08-06T18:22:57.380Z,29.50
2018-08-06T18:25:26.155Z,29.10
2018-08-06T18:27:54.985Z,28.80
2018-08-06T18:30:23.987Z,28.80
2018-08-06T18:32:52.874Z,28.70
2018-08-06T18:35:21.560Z,28.50
2018-08-06T18:37:50.094Z,28.40
2018-08-06T18:40:19.828Z,28.30
2018-08-06T18:42:48.757Z,28.00
2018-08-06T18:45:18.851Z,27.80
2018-08-06T18:47:49.062Z,27.70
2018-08-06T18:50:18.603Z,27.30
2018-08-06T18:52:48.314Z,27.10
2018-08-06T18:55:17.565Z,27.00
2018-08-06T18:57:47.015Z,26.80
2018-08-06T19:00:20.708Z,26.60
2018-08-06T19:02:49.761Z,26.50
2018-08-06T19:05:18.654Z,26.40
2018-08-06T19:07:47.419Z,26.30
2018-08-06T19:10:16.363Z,26.20
2018-08-06T19:12:50.225Z,25.90
2018-08-06T19:15:19.255Z,25.80
2018-08-06T19:17:52.987Z,25.60
2018-08-06T19:20:21.661Z,25.40
2018-08-06T19:22:50.399Z,25.40
2018-08-06T19:25:24.217Z,25.20
2018-08-06T19:27:52.930Z,25.10
2018-08-06T19:30:22.687Z,25.10
2018-08-06T19:32:51.293Z,25.10
2018-08-06T19:35:19.996Z,25.10
2018-08-06T19:37:50.133Z,25.00
2018-08-06T19:40:18.684Z,24.70
2018-08-06T19:42:52.488Z,24.40
2018-08-06T19:47:49.521Z,24.10
2018-08-06T19:50:23.561Z,24.00
2018-08-06T19:52:52.488Z,24.00
2018-08-06T19:55:26.465Z,23.90
2018-08-06T19:57:55.142Z,23.70
2018-08-06T20:00:23.990Z,23.60
2018-08-06T20:02:53.095Z,23.50
2018-08-06T20:05:22.100Z,23.50
2018-08-06T20:07:51.163Z,23.60
2018-08-06T20:10:19.863Z,23.50
2018-08-06T20:12:48.796Z,23.40
2018-08-06T20:15:19.174Z,23.40
2018-08-06T20:17:48.637Z,23.30
2018-08-06T20:20:17.674Z,23.20
2018-08-06T20:22:46.797Z,22.90
2018-08-06T20:25:18.648Z,22.80
2018-08-06T20:27:48.405Z,22.80
2018-08-06T20:30:18.833Z,22.60
2018-08-06T20:32:47.659Z,22.50
2018-08-06T20:35:17.446Z,22.50
2018-08-06T20:37:46.268Z,22.60
2018-08-06T20:40:14.890Z,22.50
2018-08-06T20:42:45.406Z,22.40
2018-08-06T20:45:15.635Z,22.30
2018-08-06T20:47:45.032Z,22.10
2018-08-06T20:50:17.922Z,22.10
2018-08-06T20:52:47.490Z,22.10
2018-08-06T20:55:16.450Z,22.00
2018-08-06T20:57:45.353Z,21.90
2018-08-06T21:00:17.992Z,21.90
2018-08-06T21:02:47.762Z,21.80
2018-08-06T21:05:16.815Z,21.70
2018-08-06T21:07:45.447Z,21.70
2018-08-06T21:10:15.600Z,21.60
2018-08-06T21:12:44.386Z,21.60
2018-08-06T21:15:14.034Z,21.30
2018-08-06T21:17:43.291Z,21.20
2018-08-06T21:20:13.555Z,21.20
2018-08-06T21:22:43.807Z,21.20
2018-08-06T21:25:13.103Z,21.10
2018-08-06T21:27:43.031Z,21.00
2018-08-06T21:32:55.327Z,20.70
2018-08-06T21:35:25.422Z,20.70
2018-08-06T21:37:55.726Z,20.70
2018-08-06T21:42:53.945Z,20.70
2018-08-06T21:45:22.638Z,20.70
2018-08-06T21:47:51.713Z,20.60
2018-08-06T21:52:48.488Z,20.30
2018-08-06T21:55:17.279Z,20.30
2018-08-06T21:57:46.041Z,20.30
2018-08-06T22:02:56.743Z,20.30
2018-08-06T22:05:25.814Z,20.10
2018-08-06T22:07:54.678Z,20.20
2018-08-06T22:10:23.456Z,20.20
2018-08-06T22:12:52.486Z,20.20
2018-08-06T22:15:21.372Z,20.20
2018-08-06T22:17:49.937Z,20.10
2018-08-06T22:20:18.526Z,20.00
2018-08-06T22:22:47.343Z,19.90
2018-08-06T22:25:16.145Z,19.70
2018-08-06T22:27:44.823Z,19.60
2018-08-06T22:30:13.549Z,19.60
2018-08-06T22:32:42.263Z,19.70
2018-08-06T22:35:13.117Z,19.70
2018-08-06T22:37:42.586Z,19.70
2018-08-06T22:40:12.682Z,19.70
2018-08-06T22:42:42.149Z,19.70
2018-08-06T22:45:12.180Z,19.60
2018-08-06T22:47:42.158Z,19.50
2018-08-06T22:50:12.267Z,19.30
2018-08-06T22:52:41.073Z,19.20
2018-08-06T22:55:11.085Z,19.00
2018-08-06T22:57:40.097Z,19.10
2018-08-06T23:00:11.104Z,19.10
2018-08-06T23:02:39.914Z,19.20
2018-08-06T23:05:09.530Z,19.10
2018-08-06T23:07:38.327Z,19.20
2018-08-06T23:10:10.843Z,19.10
2018-08-06T23:12:39.581Z,19.00
2018-08-06T23:15:13.653Z,19.00
2018-08-06T23:17:42.800Z,19.00
2018-08-06T23:20:11.665Z,18.80
2018-08-06T23:22:40.327Z,18.80
2018-08-06T23:25:08.903Z,18.80
2018-08-06T23:27:38.643Z,18.80
2018-08-06T23:30:10.844Z,20.10
2018-08-06T23:32:40.252Z,18.70
2018-08-06T23:35:10.089Z,18.60
2018-08-06T23:37:39.568Z,18.70
2018-08-06T23:40:09.260Z,18.60
2018-08-06T23:42:38.706Z,18.50
2018-08-06T23:45:09.032Z,18.40
2018-08-06T23:47:38.818Z,18.30
2018-08-06T23:50:09.152Z,18.30
2018-08-06T23:52:38.034Z,18.20
2018-08-06T23:55:07.727Z,18.30
2018-08-06T23:57:36.418Z,18.20
